Time;durP1;ratioP1;P1;durP2;ratioP2;P2;SDS_P1;SDS_P2;PMS_P1;PMS_P2;Temp;Humidity;BMP_temperature;BMP_pressure;BME280_temperature;BME280_humidity;BME280_pressure;Samples;Min_cycle;Max_cycle;Signal;HPM_P1;HPM_P2
2021/12/25 00:00:58;;;;;;;43.50;30.92;;;;;;;;;;5042837;28;20099;-62
2021/12/25 00:03:25;;;;;;;41.22;29.63;;;;;;;;;;5046481;28;20049;-63
2021/12/25 00:05:53;;;;;;;48.20;32.45;;;;;;;;;;5041890;28;20408;-62
2021/12/25 00:08:22;;;;;;;48.75;34.08;;;;;;;;;;5048400;28;20484;-60
2021/12/25 00:10:49;;;;;;;50.33;31.55;;;;;;;;;;5049021;28;20407;-62
2021/12/25 00:13:18;;;;;;;43.85;31.90;;;;;;;;;;5048545;28;20056;-62
2021/12/25 00:15:46;;;;;;;42.75;33.00;;;;;;;;;;5048549;28;20041;-62
2021/12/25 00:18:13;;;;;;;46.78;31.23;;;;;;;;;;5045230;28;20068;-63
2021/12/25 00:20:40;;;;;;;44.17;31.38;;;;;;;;;;5048789;28;20041;-62
2021/12/25 00:23:08;;;;;;;39.22;28.08;;;;;;;;;;5047279;28;20049;-63
2021/12/25 00:25:40;;;;;;;40.10;28.35;;;;;;;;;;5048931;28;20446;-62
2021/12/25 00:33:53;;;;;;;60.65;37.22;;;;;;;;;;5052630;28;20044;-62
2021/12/25 00:36:21;;;;;;;56.30;38.55;;;;;;;;;;5045087;28;20052;-63
2021/12/25 00:38:50;;;;;;;60.00;38.63;;;;;;;;;;5050264;28;20049;-62
2021/12/25 00:41:20;;;;;;;56.58;35.08;;;;;;;;;;5051765;28;20045;-62
2021/12/25 00:43:50;;;;;;;73.05;44.58;;;;;;;;;;5051059;28;20091;-62
2021/12/25 00:46:20;;;;;;;78.95;46.90;;;;;;;;;;5051661;28;20045;-62
2021/12/25 00:48:47;;;;;;;74.90;45.00;;;;;;;;;;5049895;28;20714;-63
2021/12/25 00:51:14;;;;;;;58.88;38.80;;;;;;;;;;5051839;28;20111;-62
2021/12/25 00:53:41;;;;;;;67.97;43.08;;;;;;;;;;5052174;28;20487;-62
2021/12/25 00:56:09;;;;;;;55.17;37.15;;;;;;;;;;5050982;28;20051;-62
2021/12/25 00:58:36;;;;;;;52.47;34.90;;;;;;;;;;5049953;28;20045;-63
2021/12/25 01:01:03;;;;;;;53.22;37.30;;;;;;;;;;5051945;28;20041;-62
2021/12/25 01:03:31;;;;;;;47.65;34.45;;;;;;;;;;5053790;28;20033;-62
2021/12/25 01:05:58;;;;;;;53.05;36.08;;;;;;;;;;5053524;28;20063;-61
2021/12/25 01:08:26;;;;;;;47.40;34.35;;;;;;;;;;5055019;28;20041;-62
2021/12/25 01:10:54;;;;;;;40.10;30.80;;;;;;;;;;5053155;28;20103;-62
2021/12/25 01:13:31;;;;;;;45.63;30.45;;;;;;;;;;5053509;28;20041;-59
2021/12/25 01:24:36;;;;;;;50.97;34.90;;;;;;;;;;5029220;28;20049;-59
2021/12/25 01:27:44;;;;;;;45.53;33.10;;;;;;;;;;5051005;28;20091;-61
2021/12/25 01:30:31;;;;;;;51.45;32.97;;;;;;;;;;5052971;28;20525;-60
2021/12/25 01:39:23;;;;;;;59.72;35.72;;;;;;;;;;5054115;28;20048;-59
2021/12/25 01:48:19;;;;;;;50.03;36.47;;;;;;;;;;5053021;28;20419;-60
2021/12/25 01:50:46;;;;;;;52.75;37.25;;;;;;;;;;5053918;28;20045;-60
2021/12/25 01:53:13;;;;;;;57.97;37.47;;;;;;;;;;5054624;28;20506;-59
2021/12/25 01:55:40;;;;;;;59.53;41.22;;;;;;;;;;5052758;28;20045;-60
2021/12/25 01:58:08;;;;;;;62.08;45.47;;;;;;;;;;5052861;28;20045;-59
2021/12/25 02:00:56;;;;;;;58.90;42.03;;;;;;;;;;5052551;28;20045;-59
2021/12/25 02:03:26;;;;;;;57.47;39.70;;;;;;;;;;5054283;28;20422;-61
2021/12/25 02:05:54;;;;;;;50.35;37.28;;;;;;;;;;5054112;28;20090;-61
2021/12/25 02:08:28;;;;;;;57.65;39.08;;;;;;;;;;5052992;28;20052;-60
2021/12/25 02:10:55;;;;;;;58.03;39.65;;;;;;;;;;5052426;28;20052;-59
2021/12/25 02:13:23;;;;;;;56.42;39.97;;;;;;;;;;5052650;28;20041;-60
2021/12/25 02:15:53;;;;;;;56.33;40.08;;;;;;;;;;5052665;28;20045;-59
2021/12/25 02:18:31;;;;;;;53.08;36.38;;;;;;;;;;5052479;28;20041;-60
2021/12/25 02:21:17;;;;;;;57.72;38.30;;;;;;;;;;5052531;28;20045;-61
2021/12/25 02:23:45;;;;;;;58.30;38.65;;;;;;;;;;5052402;28;20040;-61
2021/12/25 02:26:12;;;;;;;62.88;40.22;;;;;;;;;;5052602;28;20438;-60
2021/12/25 02:28:39;;;;;;;64.20;42.65;;;;;;;;;;5051975;28;20158;-60
2021/12/25 02:31:09;;;;;;;60.53;43.13;;;;;;;;;;5052157;28;20052;-61
2021/12/25 02:33:38;;;;;;;58.88;42.83;;;;;;;;;;5053480;28;20044;-61
2021/12/25 02:36:06;;;;;;;57.72;39.35;;;;;;;;;;5051946;28;20455;-61
2021/12/25 02:38:34;;;;;;;56.20;38.15;;;;;;;;;;5052966;28;20523;-61
2021/12/25 02:41:01;;;;;;;62.25;44.20;;;;;;;;;;5052127;28;20399;-60
2021/12/25 02:43:29;;;;;;;58.13;37.00;;;;;;;;;;5051621;28;20045;-60
2021/12/25 02:46:01;;;;;;;58.28;42.42;;;;;;;;;;5052188;28;20037;-61
2021/12/25 02:48:30;;;;;;;60.17;41.42;;;;;;;;;;5051566;28;20074;-61
2021/12/25 02:50:57;;;;;;;69.68;47.08;;;;;;;;;;5053010;28;20041;-61
2021/12/25 02:53:25;;;;;;;107.80;68.45;;;;;;;;;;5052021;28;20055;-61
2021/12/25 02:55:52;;;;;;;85.55;55.75;;;;;;;;;;5051563;28;20095;-59
2021/12/25 02:58:23;;;;;;;80.15;54.95;;;;;;;;;;5051856;28;20446;-59
2021/12/25 03:00:50;;;;;;;74.82;48.67;;;;;;;;;;5051242;28;20124;-62
2021/12/25 03:03:18;;;;;;;65.78;43.03;;;;;;;;;;5051774;28;20041;-61
2021/12/25 03:05:46;;;;;;;62.42;41.58;;;;;;;;;;5052419;28;20518;-62
2021/12/25 03:08:14;;;;;;;60.75;41.38;;;;;;;;;;5052846;28;20125;-61
2021/12/25 03:10:53;;;;;;;60.33;43.22;;;;;;;;;;5051187;28;20098;-60
2021/12/25 03:15:57;;;;;;;60.22;43.42;;;;;;;;;;5052458;28;20120;-60
2021/12/25 03:18:28;;;;;;;57.00;41.80;;;;;;;;;;5042836;28;20037;-60
2021/12/25 03:20:58;;;;;;;67.43;45.08;;;;;;;;;;5051380;28;20045;-60
2021/12/25 03:23:27;;;;;;;68.90;47.85;;;;;;;;;;5052622;28;20045;-59
2021/12/25 03:25:56;;;;;;;68.25;45.08;;;;;;;;;;5052500;28;20495;-60
2021/12/25 03:28:25;;;;;;;72.03;44.63;;;;;;;;;;5051136;28;20071;-60
2021/12/25 03:30:52;;;;;;;58.63;42.72;;;;;;;;;;5051205;28;20059;-60
2021/12/25 03:33:20;;;;;;;62.10;43.30;;;;;;;;;;5050911;28;20503;-59
2021/12/25 03:35:47;;;;;;;77.28;47.20;;;;;;;;;;5052432;28;20045;-60
2021/12/25 03:38:17;;;;;;;74.00;48.45;;;;;;;;;;5050836;28;20045;-60
2021/12/25 03:40:44;;;;;;;60.75;45.08;;;;;;;;;;5051299;28;20049;-60
2021/12/25 03:43:11;;;;;;;69.28;45.35;;;;;;;;;;5051245;28;20044;-60
2021/12/25 03:45:39;;;;;;;69.32;44.63;;;;;;;;;;5052828;28;20036;-60
2021/12/25 03:48:15;;;;;;;65.88;42.28;;;;;;;;;;5052607;28;20094;-60
2021/12/25 03:57:37;;;;;;;71.20;48.47;;;;;;;;;;5032622;28;20041;-60
2021/12/25 03:59:13;;;;;;;61.08;43.67;;;;;;;;;;5050518;28;20041;-59
2021/12/25 04:01:53;;;;;;;63.47;46.20;;;;;;;;;;5050819;28;20407;-61
2021/12/25 04:04:34;;;;;;;64.55;42.17;;;;;;;;;;5051131;28;20056;-60
2021/12/25 04:07:10;;;;;;;60.45;43.42;;;;;;;;;;5030854;28;20160;-60
2021/12/25 04:09:39;;;;;;;63.08;41.65;;;;;;;;;;5031220;28;20541;-60
2021/12/25 04:12:09;;;;;;;56.63;43.58;;;;;;;;;;5049100;28;20034;-59
2021/12/25 04:14:38;;;;;;;60.55;41.30;;;;;;;;;;5050999;28;20079;-59
2021/12/25 04:17:06;;;;;;;65.15;44.15;;;;;;;;;;5050707;28;20056;-59
2021/12/25 04:19:35;;;;;;;63.65;43.65;;;;;;;;;;5050889;28;20045;-60
2021/12/25 04:22:09;;;;;;;62.17;41.72;;;;;;;;;;5050598;28;20128;-60
2021/12/25 04:24:41;;;;;;;62.13;41.72;;;;;;;;;;5050956;28;20095;-60
2021/12/25 04:27:12;;;;;;;68.38;45.35;;;;;;;;;;5052226;28;20555;-60
2021/12/25 04:29:52;;;;;;;63.78;45.50;;;;;;;;;;5051006;28;20421;-60
2021/12/25 05:05:40;;;;;;;69.85;45.35;;;;;;;;;;5050071;28;20060;-61
2021/12/25 05:08:16;;;;;;;70.20;47.75;;;;;;;;;;5050260;28;20403;-62
2021/12/25 05:10:43;;;;;;;75.53;53.08;;;;;;;;;;5050160;28;20423;-61
2021/12/25 05:13:10;;;;;;;69.60;49.15;;;;;;;;;;5055373;28;20396;-61
2021/12/25 05:15:37;;;;;;;68.28;44.90;;;;;;;;;;5053919;28;20037;-61
2021/12/25 05:18:05;;;;;;;58.50;42.28;;;;;;;;;;5053312;28;20137;-61
2021/12/25 05:20:33;;;;;;;64.53;45.97;;;;;;;;;;5053668;28;20569;-61
2021/12/25 05:23:01;;;;;;;67.40;48.97;;;;;;;;;;5054878;28;20037;-61
2021/12/25 05:25:28;;;;;;;64.68;44.03;;;;;;;;;;5053326;28;20032;-61
2021/12/25 05:27:59;;;;;;;65.28;43.08;;;;;;;;;;5037473;28;20045;-61
2021/12/25 05:30:28;;;;;;;64.40;45.42;;;;;;;;;;5053686;28;20052;-61
2021/12/25 05:33:13;;;;;;;64.53;43.50;;;;;;;;;;5054908;28;20051;-61
2021/12/25 05:36:01;;;;;;;65.47;45.67;;;;;;;;;;5054269;28;20049;-62
2021/12/25 05:38:34;;;;;;;64.70;43.08;;;;;;;;;;5053193;28;20399;-62
2021/12/25 05:41:11;;;;;;;59.35;42.63;;;;;;;;;;5053470;28;20041;-62
2021/12/25 05:43:39;;;;;;;62.78;44.72;;;;;;;;;;5036757;28;20041;-61
2021/12/25 05:46:06;;;;;;;68.28;46.70;;;;;;;;;;5053274;28;20048;-61
2021/12/25 05:48:37;;;;;;;60.95;44.97;;;;;;;;;;5054591;28;20069;-61
2021/12/25 05:51:05;;;;;;;73.57;46.55;;;;;;;;;;5054365;28;20041;-62
2021/12/25 05:53:54;;;;;;;65.20;46.40;;;;;;;;;;5054624;28;20445;-62
2021/12/25 05:57:05;;;;;;;64.53;45.65;;;;;;;;;;5035530;28;20052;-61
2021/12/25 06:00:07;;;;;;;73.07;48.08;;;;;;;;;;5052021;28;20128;-61
2021/12/25 06:02:43;;;;;;;68.40;44.97;;;;;;;;;;5054713;28;20047;-61
2021/12/25 06:05:21;;;;;;;64.07;43.85;;;;;;;;;;5052348;28;20041;-61
2021/12/25 06:07:48;;;;;;;69.07;46.72;;;;;;;;;;5052282;28;20056;-62
2021/12/25 06:10:15;;;;;;;65.70;45.90;;;;;;;;;;5054356;28;20431;-61
2021/12/25 06:12:44;;;;;;;67.53;46.50;;;;;;;;;;5053668;28;20037;-62
2021/12/25 06:15:15;;;;;;;69.75;45.33;;;;;;;;;;5042882;28;20562;-61
2021/12/25 06:17:56;;;;;;;64.75;44.78;;;;;;;;;;5032758;28;20547;-61
2021/12/25 06:20:31;;;;;;;67.95;47.38;;;;;;;;;;5032951;28;20512;-61
2021/12/25 06:23:17;;;;;;;68.95;45.58;;;;;;;;;;5033577;28;20095;-61
2021/12/25 06:26:07;;;;;;;70.00;46.22;;;;;;;;;;5041013;28;20142;-61
2021/12/25 06:29:00;;;;;;;66.97;46.03;;;;;;;;;;5050030;28;20151;-61
2021/12/25 06:31:58;;;;;;;66.50;44.30;;;;;;;;;;5030720;28;20098;-62
2021/12/25 06:34:48;;;;;;;65.40;47.40;;;;;;;;;;5053411;28;20084;-61
2021/12/25 06:37:30;;;;;;;59.75;44.20;;;;;;;;;;5052079;28;20135;-61
2021/12/25 06:40:11;;;;;;;67.00;46.17;;;;;;;;;;5043612;28;20554;-61
2021/12/25 06:42:39;;;;;;;63.50;43.33;;;;;;;;;;5032396;28;20156;-61
2021/12/25 06:45:07;;;;;;;60.58;42.00;;;;;;;;;;5032241;28;20124;-61
2021/12/25 06:47:35;;;;;;;61.42;45.30;;;;;;;;;;5032346;28;20044;-61
2021/12/25 06:50:07;;;;;;;64.45;46.35;;;;;;;;;;5031545;28;20045;-61
2021/12/25 06:52:52;;;;;;;65.85;46.90;;;;;;;;;;5035640;28;20061;-61
2021/12/25 06:55:33;;;;;;;73.50;48.90;;;;;;;;;;5038491;28;20496;-61
2021/12/25 06:58:12;;;;;;;74.13;46.72;;;;;;;;;;5032002;28;20080;-61
2021/12/25 07:00:40;;;;;;;62.42;43.90;;;;;;;;;;5032227;28;20058;-61
2021/12/25 07:03:08;;;;;;;64.22;44.80;;;;;;;;;;5032923;28;20041;-61
2021/12/25 07:05:54;;;;;;;73.95;40.75;;;;;;;;;;5037587;28;20068;-61
2021/12/25 07:08:31;;;;;;;68.80;44.67;;;;;;;;;;5034166;28;20034;-60
2021/12/25 07:11:20;;;;;;;61.50;43.08;;;;;;;;;;5036856;28;20045;-61
2021/12/25 07:14:14;;;;;;;70.00;46.25;;;;;;;;;;5024907;28;20060;-62
2021/12/25 07:17:04;;;;;;;65.22;42.70;;;;;;;;;;5031772;28;20191;-62
2021/12/25 07:19:49;;;;;;;61.88;42.97;;;;;;;;;;5036890;28;20519;-62
2021/12/25 07:22:39;;;;;;;64.22;43.00;;;;;;;;;;5033364;28;20107;-61
2021/12/25 07:25:16;;;;;;;65.40;43.90;;;;;;;;;;5040735;28;20049;-63
2021/12/25 07:27:43;;;;;;;68.05;47.75;;;;;;;;;;5034368;28;20038;-60
2021/12/25 07:30:11;;;;;;;66.43;47.15;;;;;;;;;;5036500;28;20041;-60
2021/12/25 07:32:37;;;;;;;65.07;45.45;;;;;;;;;;5034450;28;20373;-60
2021/12/25 07:35:05;;;;;;;65.60;43.15;;;;;;;;;;5033855;28;20476;-60
2021/12/25 07:37:32;;;;;;;61.03;42.15;;;;;;;;;;5034097;28;20037;-60
2021/12/25 07:39:59;;;;;;;60.58;42.90;;;;;;;;;;5031900;28;20041;-60
2021/12/25 07:42:25;;;;;;;62.95;43.00;;;;;;;;;;5042400;28;20045;-59
2021/12/25 07:45:07;;;;;;;64.68;44.50;;;;;;;;;;5058281;28;20492;-62
2021/12/25 07:47:35;;;;;;;59.60;41.85;;;;;;;;;;5039911;28;20047;-61
2021/12/25 07:50:06;;;;;;;70.00;48.15;;;;;;;;;;5039606;28;20400;-62
2021/12/25 07:52:33;;;;;;;68.82;45.55;;;;;;;;;;5034698;28;20442;-62
2021/12/25 07:54:59;;;;;;;66.82;46.50;;;;;;;;;;5034160;28;20049;-62
2021/12/25 07:57:26;;;;;;;65.82;47.33;;;;;;;;;;5034713;28;20468;-62
2021/12/25 07:59:53;;;;;;;72.90;50.15;;;;;;;;;;5033965;28;20053;-61
2021/12/25 08:02:20;;;;;;;72.50;51.55;;;;;;;;;;5032779;28;20053;-61
2021/12/25 08:04:47;;;;;;;69.43;51.40;;;;;;;;;;5034079;28;20065;-62
2021/12/25 08:07:14;;;;;;;64.38;45.42;;;;;;;;;;5036159;28;20099;-62
2021/12/25 08:09:42;;;;;;;62.55;43.45;;;;;;;;;;5034592;28;20078;-62
2021/12/25 08:12:10;;;;;;;65.03;45.90;;;;;;;;;;5034072;28;20423;-62
2021/12/25 08:14:36;;;;;;;64.32;44.97;;;;;;;;;;5034587;28;20049;-62
2021/12/25 08:17:04;;;;;;;59.50;45.80;;;;;;;;;;5043675;28;20491;-62
2021/12/25 08:19:49;;;;;;;63.20;43.05;;;;;;;;;;5041000;28;20055;-63
2021/12/25 08:22:48;;;;;;;66.00;47.58;;;;;;;;;;5029779;28;20093;-62
2021/12/25 08:25:34;;;;;;;65.78;47.20;;;;;;;;;;5042904;28;20040;-61
2021/12/25 08:28:20;;;;;;;63.83;45.60;;;;;;;;;;5040892;28;20040;-61
2021/12/25 08:31:05;;;;;;;65.93;42.38;;;;;;;;;;5034133;28;20060;-63
2021/12/25 08:33:54;;;;;;;62.55;45.92;;;;;;;;;;5035573;28;20608;-61
2021/12/25 08:36:39;;;;;;;65.47;43.63;;;;;;;;;;5041616;28;20060;-62
2021/12/25 08:39:07;;;;;;;65.95;45.88;;;;;;;;;;5033633;28;20049;-60
2021/12/25 08:41:34;;;;;;;66.57;46.67;;;;;;;;;;5037806;28;20056;-61
2021/12/25 08:44:08;;;;;;;60.88;43.75;;;;;;;;;;5031292;28;20038;-62
2021/12/25 08:46:45;;;;;;;65.65;45.28;;;;;;;;;;5036788;28;20090;-63
2021/12/25 08:49:17;;;;;;;67.63;45.03;;;;;;;;;;5035919;28;20136;-63
2021/12/25 08:51:44;;;;;;;72.15;48.53;;;;;;;;;;5039920;28;20041;-63
2021/12/25 08:54:12;;;;;;;68.05;48.70;;;;;;;;;;5036956;28;20095;-62
2021/12/25 08:56:40;;;;;;;69.13;47.47;;;;;;;;;;5039914;28;20472;-63
2021/12/25 08:59:07;;;;;;;66.05;47.65;;;;;;;;;;5038600;28;20037;-63
2021/12/25 09:01:34;;;;;;;70.82;50.22;;;;;;;;;;5040294;28;20403;-62
2021/12/25 09:04:03;;;;;;;67.13;49.88;;;;;;;;;;5040172;28;20395;-62
2021/12/25 09:06:30;;;;;;;66.20;48.30;;;;;;;;;;5041043;28;20065;-61
2021/12/25 09:09:02;;;;;;;70.53;45.90;;;;;;;;;;5045333;28;20049;-59
2021/12/25 09:11:29;;;;;;;67.05;45.75;;;;;;;;;;5040736;28;20231;-67
2021/12/25 09:13:56;;;;;;;66.05;45.72;;;;;;;;;;5048765;28;20041;-62
2021/12/25 09:16:23;;;;;;;67.22;47.10;;;;;;;;;;5045906;28;20443;-59
2021/12/25 09:18:50;;;;;;;65.95;47.03;;;;;;;;;;5045669;28;20041;-62
2021/12/25 09:21:17;;;;;;;70.43;47.85;;;;;;;;;;5045472;28;20395;-61
2021/12/25 09:23:44;;;;;;;65.82;46.92;;;;;;;;;;5045443;28;20107;-61
2021/12/25 09:26:11;;;;;;;67.70;47.97;;;;;;;;;;5045676;28;20064;-61
2021/12/25 09:28:38;;;;;;;61.03;46.92;;;;;;;;;;5045550;28;20045;-60
2021/12/25 09:31:05;;;;;;;66.28;46.47;;;;;;;;;;5046221;28;20045;-58
2021/12/25 09:33:32;;;;;;;64.50;44.28;;;;;;;;;;5042717;28;20033;-61
2021/12/25 09:36:02;;;;;;;65.80;47.70;;;;;;;;;;5046929;28;20499;-60
2021/12/25 09:38:30;;;;;;;66.20;46.42;;;;;;;;;;5043203;28;20057;-61
2021/12/25 09:40:58;;;;;;;63.83;44.00;;;;;;;;;;5040385;28;20348;-62
2021/12/25 09:43:26;;;;;;;69.38;45.88;;;;;;;;;;5045436;28;20040;-58
2021/12/25 09:45:54;;;;;;;72.30;48.63;;;;;;;;;;5049379;28;20045;-60
2021/12/25 09:48:21;;;;;;;66.78;47.53;;;;;;;;;;5044307;28;20123;-57
2021/12/25 09:50:49;;;;;;;63.25;46.67;;;;;;;;;;5042352;28;20128;-60
2021/12/25 09:53:18;;;;;;;70.68;50.47;;;;;;;;;;5043104;28;20038;-59
2021/12/25 09:55:46;;;;;;;64.63;48.60;;;;;;;;;;5045787;28;20048;-60
2021/12/25 09:58:13;;;;;;;73.50;52.70;;;;;;;;;;5043109;28;20061;-60
2021/12/25 10:00:43;;;;;;;68.07;47.10;;;;;;;;;;5038580;28;20041;-60
2021/12/25 10:03:22;;;;;;;70.15;50.70;;;;;;;;;;5039458;28;20400;-59
2021/12/25 10:05:50;;;;;;;72.57;48.17;;;;;;;;;;5042054;28;20037;-61
2021/12/25 10:08:27;;;;;;;69.93;48.00;;;;;;;;;;5044213;28;20045;-59
2021/12/25 10:11:01;;;;;;;67.22;44.10;;;;;;;;;;5041866;28;20054;-58
2021/12/25 10:13:37;;;;;;;67.28;48.80;;;;;;;;;;5041128;28;20046;-60
2021/12/25 10:16:25;;;;;;;70.38;49.72;;;;;;;;;;5041494;28;20048;-60
2021/12/25 10:19:13;;;;;;;71.20;50.40;;;;;;;;;;5045323;28;20045;-60
2021/12/25 10:21:40;;;;;;;70.00;48.35;;;;;;;;;;5046768;28;20149;-60
2021/12/25 10:24:13;;;;;;;68.85;46.05;;;;;;;;;;5049704;28;20036;-59
2021/12/25 10:26:44;;;;;;;66.53;50.47;;;;;;;;;;5048277;28;20040;-60
2021/12/25 10:29:19;;;;;;;62.63;45.90;;;;;;;;;;5047510;28;20513;-61
2021/12/25 10:31:47;;;;;;;78.03;50.63;;;;;;;;;;5049206;28;20045;-60
2021/12/25 10:34:19;;;;;;;75.07;50.63;;;;;;;;;;5048565;28;20077;-61
2021/12/25 10:36:47;;;;;;;70.88;48.40;;;;;;;;;;5043913;28;20041;-60
2021/12/25 10:39:23;;;;;;;75.75;50.53;;;;;;;;;;5043970;28;20491;-61
2021/12/25 10:41:53;;;;;;;75.28;54.83;;;;;;;;;;5043910;28;20053;-62
2021/12/25 10:44:27;;;;;;;71.03;47.42;;;;;;;;;;5044266;28;20037;-60
2021/12/25 10:47:05;;;;;;;70.78;49.72;;;;;;;;;;5050767;28;20522;-63
2021/12/25 10:49:35;;;;;;;78.03;48.85;;;;;;;;;;5048077;28;20147;-62
2021/12/25 10:52:29;;;;;;;73.13;50.83;;;;;;;;;;5049683;28;20041;-62
2021/12/25 10:55:05;;;;;;;69.03;49.38;;;;;;;;;;5048808;28;20041;-61
2021/12/25 10:57:44;;;;;;;70.18;51.03;;;;;;;;;;5050786;28;20064;-58
2021/12/25 11:00:22;;;;;;;76.45;50.97;;;;;;;;;;5048102;28;20037;-61
2021/12/25 11:02:59;;;;;;;71.90;49.22;;;;;;;;;;5049245;28;20124;-61
2021/12/25 11:05:34;;;;;;;73.20;48.88;;;;;;;;;;5050223;28;20076;-62
2021/12/25 11:08:22;;;;;;;69.05;49.60;;;;;;;;;;5044209;28;20124;-62
2021/12/25 11:11:08;;;;;;;77.82;53.53;;;;;;;;;;5048708;28;20058;-62
2021/12/25 11:13:50;;;;;;;75.72;51.53;;;;;;;;;;5048560;28;20041;-60
2021/12/25 11:16:27;;;;;;;71.05;48.97;;;;;;;;;;5043583;28;20404;-62
2021/12/25 11:19:16;;;;;;;72.88;50.83;;;;;;;;;;5038651;28;20077;-60
2021/12/25 11:21:43;;;;;;;73.72;51.50;;;;;;;;;;5036774;28;20487;-60
2021/12/25 11:24:21;;;;;;;76.72;52.10;;;;;;;;;;5036726;28;20115;-60
2021/12/25 11:26:50;;;;;;;71.60;50.75;;;;;;;;;;5038815;28;20052;-59
2021/12/25 11:29:20;;;;;;;65.68;48.28;;;;;;;;;;5033829;28;20489;-59
2021/12/25 11:31:48;;;;;;;74.32;50.72;;;;;;;;;;5035296;28;20090;-60
2021/12/25 11:34:17;;;;;;;74.20;50.80;;;;;;;;;;5038751;28;20373;-60
2021/12/25 11:36:48;;;;;;;77.25;52.45;;;;;;;;;;5038846;28;20168;-61
2021/12/25 11:39:19;;;;;;;78.03;53.92;;;;;;;;;;5035609;28;20041;-61
2021/12/25 11:41:48;;;;;;;76.25;53.78;;;;;;;;;;5035766;28;20507;-60
2021/12/25 11:44:36;;;;;;;79.38;55.22;;;;;;;;;;5035935;28;20037;-61
2021/12/25 11:47:04;;;;;;;74.93;52.95;;;;;;;;;;5036708;28;20041;-60
2021/12/25 11:49:31;;;;;;;79.78;55.53;;;;;;;;;;5035303;28;20044;-61
2021/12/25 11:52:23;;;;;;;74.60;50.40;;;;;;;;;;5036439;28;20064;-62
2021/12/25 11:58:03;;;;;;;76.18;53.25;;;;;;;;;;5038078;28;20098;-60
2021/12/25 12:00:35;;;;;;;74.35;51.63;;;;;;;;;;5029442;28;20037;-61
2021/12/25 12:03:03;;;;;;;78.47;52.65;;;;;;;;;;5042463;28;20053;-61
2021/12/25 12:05:32;;;;;;;68.78;50.90;;;;;;;;;;5037828;28;20041;-63
2021/12/25 12:08:14;;;;;;;74.07;51.22;;;;;;;;;;5041283;28;20045;-61
2021/12/25 12:11:01;;;;;;;75.18;51.47;;;;;;;;;;5043156;28;20507;-62
2021/12/25 12:13:47;;;;;;;76.30;51.80;;;;;;;;;;5034541;28;20416;-61
2021/12/25 12:16:45;;;;;;;81.57;53.72;;;;;;;;;;5023683;28;20488;-60
2021/12/25 12:19:38;;;;;;;68.95;47.67;;;;;;;;;;5051444;28;20041;-61
2021/12/25 12:27:40;;;;;;;68.43;50.08;;;;;;;;;;5047538;28;20049;-61
2021/12/25 12:30:11;;;;;;;70.45;50.80;;;;;;;;;;5045939;28;20404;-60
2021/12/25 12:32:45;;;;;;;75.72;51.58;;;;;;;;;;5040862;28;20072;-60
2021/12/25 12:35:28;;;;;;;;;;;;;;;;;;5046473;28;20048;-61
2021/12/25 12:38:43;;;;;;;74.18;53.50;;;;;;;;;;5038114;28;19921;-59
2021/12/25 12:41:12;;;;;;;76.53;53.90;;;;;;;;;;5036379;28;20059;-60
2021/12/25 12:44:12;;;;;;;77.00;53.28;;;;;;;;;;5037309;28;20049;-60
2021/12/25 12:46:48;;;;;;;75.93;52.55;;;;;;;;;;5046330;28;20452;-60
2021/12/25 12:49:20;;;;;;;78.05;57.05;;;;;;;;;;5043839;28;20041;-60
2021/12/25 12:52:08;;;;;;;75.18;54.17;;;;;;;;;;5035786;28;20053;-61
2021/12/25 12:54:45;;;;;;;82.03;54.53;;;;;;;;;;5047975;28;20041;-60
2021/12/25 12:57:22;;;;;;;76.10;51.95;;;;;;;;;;5048247;28;20444;-61
2021/12/25 12:59:54;;;;;;;73.03;50.72;;;;;;;;;;5048087;28;20060;-60
2021/12/25 13:02:23;;;;;;;76.05;51.60;;;;;;;;;;5036086;28;20049;-61
2021/12/25 13:04:52;;;;;;;75.40;51.60;;;;;;;;;;5039432;28;20041;-60
2021/12/25 13:07:21;;;;;;;71.47;50.75;;;;;;;;;;5039604;28;20049;-61
2021/12/25 13:10:17;;;;;;;69.60;50.55;;;;;;;;;;5037485;28;20041;-62
2021/12/25 13:12:47;;;;;;;74.18;53.95;;;;;;;;;;5035045;28;20041;-63
2021/12/25 13:15:17;;;;;;;74.60;53.80;;;;;;;;;;5040337;28;20045;-62
2021/12/25 13:17:58;;;;;;;75.35;54.70;;;;;;;;;;5036882;28;20041;-62
2021/12/25 13:20:47;;;;;;;78.43;53.95;;;;;;;;;;5037916;28;20054;-62
2021/12/25 13:23:21;;;;;;;82.45;54.70;;;;;;;;;;5035293;28;20431;-64
2021/12/25 13:25:53;;;;;;;78.28;54.72;;;;;;;;;;5040688;28;20120;-64
2021/12/25 13:28:21;;;;;;;76.20;54.78;;;;;;;;;;5037082;28;20041;-64
2021/12/25 13:30:52;;;;;;;77.30;54.63;;;;;;;;;;5037214;28;20489;-63
2021/12/25 13:33:22;;;;;;;73.88;52.40;;;;;;;;;;5036295;28;20046;-63
2021/12/25 13:36:08;;;;;;;82.40;55.60;;;;;;;;;;5039402;28;20555;-64
2021/12/25 13:38:44;;;;;;;79.80;57.92;;;;;;;;;;5041471;28;20045;-62
2021/12/25 13:41:11;;;;;;;84.68;59.45;;;;;;;;;;5036836;28;20388;-62
2021/12/25 13:43:38;;;;;;;74.00;55.33;;;;;;;;;;5035414;28;20400;-63
2021/12/25 13:46:05;;;;;;;73.82;53.65;;;;;;;;;;5037132;28;20095;-61
2021/12/25 13:48:41;;;;;;;78.50;54.20;;;;;;;;;;5038632;28;20569;-61
2021/12/25 13:51:08;;;;;;;71.93;53.95;;;;;;;;;;5036540;28;20049;-61
2021/12/25 13:53:39;;;;;;;75.75;55.50;;;;;;;;;;5035215;28;20045;-61
2021/12/25 13:56:08;;;;;;;78.00;51.58;;;;;;;;;;5036727;28;20055;-61
2021/12/25 13:58:35;;;;;;;78.32;55.40;;;;;;;;;;5036057;28;20091;-61
2021/12/25 14:01:02;;;;;;;74.53;50.97;;;;;;;;;;5035199;28;20631;-61
2021/12/25 14:03:30;;;;;;;82.32;53.58;;;;;;;;;;5036023;28;20563;-62
2021/12/25 14:05:58;;;;;;;72.13;51.22;;;;;;;;;;5033827;28;20037;-62
2021/12/25 14:08:26;;;;;;;74.03;51.25;;;;;;;;;;5036357;28;20064;-61
2021/12/25 14:10:59;;;;;;;78.18;54.97;;;;;;;;;;5036937;28;20399;-61
2021/12/25 14:13:28;;;;;;;76.18;56.70;;;;;;;;;;5036181;28;20046;-61
2021/12/25 14:15:56;;;;;;;74.00;52.22;;;;;;;;;;5042160;28;20053;-61
2021/12/25 14:18:31;;;;;;;75.10;52.90;;;;;;;;;;5036346;28;20088;-61
2021/12/25 14:21:21;;;;;;;74.88;54.42;;;;;;;;;;5036820;28;20504;-62
2021/12/25 14:24:13;;;;;;;112.82;78.05;;;;;;;;;;5036332;28;20060;-61
2021/12/25 14:26:43;;;;;;;75.03;56.78;;;;;;;;;;5034086;28;20460;-59
2021/12/25 14:29:27;;;;;;;76.28;55.78;;;;;;;;;;5035950;28;20044;-60
2021/12/25 14:31:54;;;;;;;99.75;64.82;;;;;;;;;;5036697;28;20049;-61
2021/12/25 14:34:31;;;;;;;82.65;56.75;;;;;;;;;;5035420;28;20053;-60
2021/12/25 14:36:59;;;;;;;80.07;54.20;;;;;;;;;;5034028;28;20048;-60
2021/12/25 14:39:27;;;;;;;77.80;51.53;;;;;;;;;;5036188;28;20042;-61
2021/12/25 14:41:54;;;;;;;75.53;52.72;;;;;;;;;;5036284;28;20431;-62
2021/12/25 14:44:23;;;;;;;72.63;52.35;;;;;;;;;;5035636;28;20148;-58
2021/12/25 14:47:09;;;;;;;75.22;54.17;;;;;;;;;;5033621;28;20061;-59
2021/12/25 14:49:38;;;;;;;79.72;56.35;;;;;;;;;;5044513;28;20052;-60
2021/12/25 14:52:05;;;;;;;76.65;54.47;;;;;;;;;;5044087;28;20484;-60
2021/12/25 14:54:32;;;;;;;73.80;51.78;;;;;;;;;;5034356;28;20049;-61
2021/12/25 14:57:00;;;;;;;85.95;57.88;;;;;;;;;;5037716;28;20037;-60
2021/12/25 14:59:28;;;;;;;74.50;53.67;;;;;;;;;;5035655;28;20515;-60
2021/12/25 15:01:58;;;;;;;80.18;55.90;;;;;;;;;;5035677;28;20514;-60
2021/12/25 15:04:32;;;;;;;72.50;51.85;;;;;;;;;;5035664;28;20048;-59
2021/12/25 15:07:03;;;;;;;72.72;53.30;;;;;;;;;;5035128;28;20047;-59
2021/12/25 15:09:35;;;;;;;78.43;57.40;;;;;;;;;;5032396;28;20041;-59
2021/12/25 15:12:15;;;;;;;74.03;54.40;;;;;;;;;;5034944;28;20136;-60
2021/12/25 15:14:53;;;;;;;71.05;52.42;;;;;;;;;;5035775;28;20435;-59
2021/12/25 15:17:26;;;;;;;73.53;54.97;;;;;;;;;;5035681;28;20408;-60
2021/12/25 15:20:14;;;;;;;72.95;52.25;;;;;;;;;;5033271;28;20049;-60
2021/12/25 15:22:41;;;;;;;72.55;52.67;;;;;;;;;;5035633;28;20052;-60
2021/12/25 15:25:25;;;;;;;79.22;52.13;;;;;;;;;;5034396;28;20810;-60
2021/12/25 15:27:55;;;;;;;70.78;51.63;;;;;;;;;;5035377;28;20045;-61
2021/12/25 15:30:39;;;;;;;76.95;54.08;;;;;;;;;;5042035;28;20559;-60
2021/12/25 15:33:09;;;;;;;78.43;54.30;;;;;;;;;;5042665;28;20491;-61
2021/12/25 15:35:39;;;;;;;81.90;57.58;;;;;;;;;;5049942;28;20056;-60
2021/12/25 15:38:07;;;;;;;83.88;59.50;;;;;;;;;;5049572;28;20068;-61
2021/12/25 15:40:42;;;;;;;79.15;58.70;;;;;;;;;;5047477;28;20385;-61
2021/12/25 15:43:09;;;;;;;82.55;56.17;;;;;;;;;;5044269;28;20480;-60
2021/12/25 15:45:36;;;;;;;79.57;56.92;;;;;;;;;;5050250;28;20041;-59
2021/12/25 15:48:04;;;;;;;75.90;53.35;;;;;;;;;;5050191;28;20048;-60
2021/12/25 15:50:34;;;;;;;76.20;55.30;;;;;;;;;;5051172;28;20152;-59
2021/12/25 15:53:02;;;;;;;76.70;57.13;;;;;;;;;;5047343;28;20045;-58
2021/12/25 15:55:32;;;;;;;79.13;55.78;;;;;;;;;;5049115;28;20037;-59
2021/12/25 15:58:05;;;;;;;81.88;56.00;;;;;;;;;;5047866;28;20045;-60
2021/12/25 16:00:40;;;;;;;77.90;55.58;;;;;;;;;;5048006;28;20132;-60
2021/12/25 16:03:07;;;;;;;82.22;59.90;;;;;;;;;;5048571;28;20045;-61
2021/12/25 16:05:34;;;;;;;76.30;56.17;;;;;;;;;;5048541;28;20053;-63
2021/12/25 16:08:02;;;;;;;81.72;53.60;;;;;;;;;;5051343;28;20045;-61